sensor_id;sensor_type;location;lat;lon;timestamp;pressure;altitude;pressure_sealevel;temperature
22322;BMP180;11328;53.928;18.522;2023-02-28T00:01:26;101692.00;;;-3.20
22322;BMP180;11328;53.928;18.522;2023-02-28T00:03:54;101700.00;;;-3.30
22322;BMP180;11328;53.928;18.522;2023-02-28T00:06:21;101700.00;;;-3.20
22322;BMP180;11328;53.928;18.522;2023-02-28T00:08:48;101699.00;;;-3.20
22322;BMP180;11328;53.928;18.522;2023-02-28T00:11:16;101675.00;;;-3.20
22322;BMP180;11328;53.928;18.522;2023-02-28T00:13:46;101691.00;;;-3.30
22322;BMP180;11328;53.928;18.522;2023-02-28T00:16:20;101692.00;;;-3.40
22322;BMP180;11328;53.928;18.522;2023-02-28T00:18:48;101694.00;;;-3.50
22322;BMP180;11328;53.928;18.522;2023-02-28T00:21:17;101680.00;;;-3.60
22322;BMP180;11328;53.928;18.522;2023-02-28T00:23:44;101688.00;;;-3.50
22322;BMP180;11328;53.928;18.522;2023-02-28T00:26:11;101674.00;;;-3.60
22322;BMP180;11328;53.928;18.522;2023-02-28T00:28:38;101674.00;;;-3.70
22322;BMP180;11328;53.928;18.522;2023-02-28T00:31:05;101677.00;;;-3.70
22322;BMP180;11328;53.928;18.522;2023-02-28T00:33:32;101685.00;;;-3.70
22322;BMP180;11328;53.928;18.522;2023-02-28T00:36:09;101679.00;;;-3.70
22322;BMP180;11328;53.928;18.522;2023-02-28T00:38:38;101669.00;;;-3.70
22322;BMP180;11328;53.928;18.522;2023-02-28T00:41:06;101662.00;;;-3.80
22322;BMP180;11328;53.928;18.522;2023-02-28T00:43:36;101683.00;;;-3.80
22322;BMP180;11328;53.928;18.522;2023-02-28T00:46:04;101672.00;;;-3.70
22322;BMP180;11328;53.928;18.522;2023-02-28T00:48:32;101684.00;;;-3.70
22322;BMP180;11328;53.928;18.522;2023-02-28T00:50:59;101527.00;;;-3.70
22322;BMP180;11328;53.928;18.522;2023-02-28T00:53:27;101695.00;;;-3.70
22322;BMP180;11328;53.928;18.522;2023-02-28T00:55:54;101703.00;;;-3.70
22322;BMP180;11328;53.928;18.522;2023-02-28T00:58:21;101699.00;;;-3.70
22322;BMP180;11328;53.928;18.522;2023-02-28T01:00:48;101705.00;;;-3.70
22322;BMP180;11328;53.928;18.522;2023-02-28T01:03:20;101696.00;;;-3.70
22322;BMP180;11328;53.928;18.522;2023-02-28T01:05:47;101699.00;;;-3.60
22322;BMP180;11328;53.928;18.522;2023-02-28T01:08:15;101702.00;;;-3.60
22322;BMP180;11328;53.928;18.522;2023-02-28T01:10:42;101694.00;;;-3.70
22322;BMP180;11328;53.928;18.522;2023-02-28T01:13:09;101695.00;;;-3.70
22322;BMP180;11328;53.928;18.522;2023-02-28T01:15:49;101715.00;;;-3.70
22322;BMP180;11328;53.928;18.522;2023-02-28T01:18:17;101706.00;;;-3.80
22322;BMP180;11328;53.928;18.522;2023-02-28T01:20:44;101710.00;;;-3.80
22322;BMP180;11328;53.928;18.522;2023-02-28T01:23:12;101705.00;;;-3.70
22322;BMP180;11328;53.928;18.522;2023-02-28T01:25:39;101653.00;;;-3.70
22322;BMP180;11328;53.928;18.522;2023-02-28T01:28:06;101665.00;;;-3.70
22322;BMP180;11328;53.928;18.522;2023-02-28T01:30:33;101697.00;;;-3.80
22322;BMP180;11328;53.928;18.522;2023-02-28T01:33:01;101686.00;;;-3.90
22322;BMP180;11328;53.928;18.522;2023-02-28T01:35:27;101689.00;;;-3.90
22322;BMP180;11328;53.928;18.522;2023-02-28T01:37:54;101687.00;;;-3.90
22322;BMP180;11328;53.928;18.522;2023-02-28T01:40:24;101694.00;;;-4.00
22322;BMP180;11328;53.928;18.522;2023-02-28T01:42:51;101690.00;;;-4.00
22322;BMP180;11328;53.928;18.522;2023-02-28T01:45:31;101692.00;;;-4.00
22322;BMP180;11328;53.928;18.522;2023-02-28T01:48:03;101706.00;;;-3.90
22322;BMP180;11328;53.928;18.522;2023-02-28T01:50:38;101695.00;;;-3.90
22322;BMP180;11328;53.928;18.522;2023-02-28T01:53:11;101698.00;;;-3.90
22322;BMP180;11328;53.928;18.522;2023-02-28T01:55:46;101692.00;;;-3.90
22322;BMP180;11328;53.928;18.522;2023-02-28T01:58:14;101690.00;;;-4.00
22322;BMP180;11328;53.928;18.522;2023-02-28T02:00:41;101691.00;;;-4.00
22322;BMP180;11328;53.928;18.522;2023-02-28T02:03:13;101537.00;;;-4.10
22322;BMP180;11328;53.928;18.522;2023-02-28T02:05:43;101696.00;;;-4.10
22322;BMP180;11328;53.928;18.522;2023-02-28T02:08:19;101694.00;;;-4.10
22322;BMP180;11328;53.928;18.522;2023-02-28T02:10:59;101693.00;;;-4.10
22322;BMP180;11328;53.928;18.522;2023-02-28T02:17:25;101696.00;;;-4.10
22322;BMP180;11328;53.928;18.522;2023-02-28T02:20:32;101697.00;;;-4.10
22322;BMP180;11328;53.928;18.522;2023-02-28T02:26:33;101688.00;;;-4.30
22322;BMP180;11328;53.928;18.522;2023-02-28T02:32:32;101686.00;;;-4.40
22322;BMP180;11328;53.928;18.522;2023-02-28T02:43:19;101686.00;;;-4.50
22322;BMP180;11328;53.928;18.522;2023-02-28T02:46:00;101665.00;;;-4.60
22322;BMP180;11328;53.928;18.522;2023-02-28T02:48:34;101687.00;;;-4.60
22322;BMP180;11328;53.928;18.522;2023-02-28T02:51:07;101686.00;;;-4.60
22322;BMP180;11328;53.928;18.522;2023-02-28T02:53:51;101688.00;;;-4.80
22322;BMP180;11328;53.928;18.522;2023-02-28T02:56:24;101685.00;;;-4.70
22322;BMP180;11328;53.928;18.522;2023-02-28T02:58:58;101682.00;;;-4.70
22322;BMP180;11328;53.928;18.522;2023-02-28T03:01:29;101682.00;;;-4.70
22322;BMP180;11328;53.928;18.522;2023-02-28T03:04:02;101645.00;;;-4.80
22322;BMP180;11328;53.928;18.522;2023-02-28T03:06:30;101640.00;;;-4.80
22322;BMP180;11328;53.928;18.522;2023-02-28T03:08:57;101680.00;;;-4.70
22322;BMP180;11328;53.928;18.522;2023-02-28T03:11:24;101679.00;;;-4.70
22322;BMP180;11328;53.928;18.522;2023-02-28T03:17:02;101684.00;;;-4.80
22322;BMP180;11328;53.928;18.522;2023-02-28T03:23:17;101678.00;;;-4.90
22322;BMP180;11328;53.928;18.522;2023-02-28T03:26:13;101682.00;;;-4.80
22322;BMP180;11328;53.928;18.522;2023-02-28T03:29:06;101681.00;;;-4.80
22322;BMP180;11328;53.928;18.522;2023-02-28T03:31:42;101684.00;;;-4.70
22322;BMP180;11328;53.928;18.522;2023-02-28T03:34:22;101681.00;;;-4.70
22322;BMP180;11328;53.928;18.522;2023-02-28T03:36:57;101680.00;;;-4.70
22322;BMP180;11328;53.928;18.522;2023-02-28T03:39:39;101685.00;;;-4.70
22322;BMP180;11328;53.928;18.522;2023-02-28T03:42:15;101689.00;;;-4.60
22322;BMP180;11328;53.928;18.522;2023-02-28T03:44:51;101683.00;;;-4.50
22322;BMP180;11328;53.928;18.522;2023-02-28T03:47:29;101680.00;;;-4.50
22322;BMP180;11328;53.928;18.522;2023-02-28T03:50:01;101687.00;;;-4.40
22322;BMP180;11328;53.928;18.522;2023-02-28T03:52:42;101686.00;;;-4.40
22322;BMP180;11328;53.928;18.522;2023-02-28T03:55:15;101696.00;;;-4.40
22322;BMP180;11328;53.928;18.522;2023-02-28T03:58:09;101689.00;;;-4.40
22322;BMP180;11328;53.928;18.522;2023-02-28T04:00:45;101690.00;;;-4.30
22322;BMP180;11328;53.928;18.522;2023-02-28T04:03:13;101688.00;;;-4.30
22322;BMP180;11328;53.928;18.522;2023-02-28T04:06:14;101694.00;;;-4.30
22322;BMP180;11328;53.928;18.522;2023-02-28T04:08:42;101690.00;;;-4.30
22322;BMP180;11328;53.928;18.522;2023-02-28T04:11:33;101699.00;;;-4.40
22322;BMP180;11328;53.928;18.522;2023-02-28T04:14:05;101690.00;;;-4.40
22322;BMP180;11328;53.928;18.522;2023-02-28T04:16:36;101698.00;;;-4.30
22322;BMP180;11328;53.928;18.522;2023-02-28T04:19:05;101697.00;;;-4.30
22322;BMP180;11328;53.928;18.522;2023-02-28T04:21:39;101685.00;;;-4.20
22322;BMP180;11328;53.928;18.522;2023-02-28T04:24:09;101698.00;;;-4.30
22322;BMP180;11328;53.928;18.522;2023-02-28T04:26:46;101694.00;;;-4.30
22322;BMP180;11328;53.928;18.522;2023-02-28T04:29:24;101679.00;;;-4.30
22322;BMP180;11328;53.928;18.522;2023-02-28T04:31:51;101688.00;;;-4.40
22322;BMP180;11328;53.928;18.522;2023-02-28T04:34:21;101692.00;;;-4.50
22322;BMP180;11328;53.928;18.522;2023-02-28T04:36:48;101689.00;;;-4.40
22322;BMP180;11328;53.928;18.522;2023-02-28T04:39:39;101692.00;;;-4.50
22322;BMP180;11328;53.928;18.522;2023-02-28T04:42:06;101694.00;;;-4.40
22322;BMP180;11328;53.928;18.522;2023-02-28T04:44:33;101699.00;;;-4.40
22322;BMP180;11328;53.928;18.522;2023-02-28T04:47:00;101681.00;;;-4.40
22322;BMP180;11328;53.928;18.522;2023-02-28T04:49:27;101689.00;;;-4.40
22322;BMP180;11328;53.928;18.522;2023-02-28T04:51:56;101687.00;;;-4.50
22322;BMP180;11328;53.928;18.522;2023-02-28T04:54:23;101687.00;;;-4.60
22322;BMP180;11328;53.928;18.522;2023-02-28T04:56:50;101694.00;;;-4.60
22322;BMP180;11328;53.928;18.522;2023-02-28T04:59:17;101692.00;;;-4.70
22322;BMP180;11328;53.928;18.522;2023-02-28T05:01:49;101691.00;;;-4.70
22322;BMP180;11328;53.928;18.522;2023-02-28T05:04:16;101703.00;;;-4.60
22322;BMP180;11328;53.928;18.522;2023-02-28T05:06:44;101692.00;;;-4.70
22322;BMP180;11328;53.928;18.522;2023-02-28T05:09:11;101705.00;;;-4.60
22322;BMP180;11328;53.928;18.522;2023-02-28T05:11:41;101707.00;;;-4.60
22322;BMP180;11328;53.928;18.522;2023-02-28T05:14:13;101707.00;;;-4.60
22322;BMP180;11328;53.928;18.522;2023-02-28T05:16:41;101702.00;;;-4.70
22322;BMP180;11328;53.928;18.522;2023-02-28T05:19:08;101698.00;;;-4.80
22322;BMP180;11328;53.928;18.522;2023-02-28T05:21:39;101707.00;;;-4.80
22322;BMP180;11328;53.928;18.522;2023-02-28T05:24:11;101711.00;;;-4.80
22322;BMP180;11328;53.928;18.522;2023-02-28T05:26:42;101713.00;;;-4.80
22322;BMP180;11328;53.928;18.522;2023-02-28T05:29:10;101704.00;;;-4.80
22322;BMP180;11328;53.928;18.522;2023-02-28T05:31:37;101696.00;;;-4.90
22322;BMP180;11328;53.928;18.522;2023-02-28T05:34:04;101707.00;;;-4.90
22322;BMP180;11328;53.928;18.522;2023-02-28T05:36:32;101703.00;;;-4.90
22322;BMP180;11328;53.928;18.522;2023-02-28T05:38:59;101707.00;;;-4.90
22322;BMP180;11328;53.928;18.522;2023-02-28T05:41:26;101707.00;;;-4.90
22322;BMP180;11328;53.928;18.522;2023-02-28T05:43:54;101707.00;;;-4.90
22322;BMP180;11328;53.928;18.522;2023-02-28T05:46:21;101554.00;;;-4.90
22322;BMP180;11328;53.928;18.522;2023-02-28T05:48:48;101720.00;;;-4.90
22322;BMP180;11328;53.928;18.522;2023-02-28T05:51:16;101684.00;;;-4.80
22322;BMP180;11328;53.928;18.522;2023-02-28T05:53:44;101698.00;;;-4.80
22322;BMP180;11328;53.928;18.522;2023-02-28T05:56:11;101696.00;;;-4.80
22322;BMP180;11328;53.928;18.522;2023-02-28T05:58:37;101710.00;;;-4.70
22322;BMP180;11328;53.928;18.522;2023-02-28T06:01:38;101713.00;;;-4.70
22322;BMP180;11328;53.928;18.522;2023-02-28T06:04:09;101721.00;;;-4.60
22322;BMP180;11328;53.928;18.522;2023-02-28T06:06:54;101713.00;;;-4.70
22322;BMP180;11328;53.928;18.522;2023-02-28T06:09:24;101715.00;;;-4.70
22322;BMP180;11328;53.928;18.522;2023-02-28T06:11:51;101715.00;;;-4.60
22322;BMP180;11328;53.928;18.522;2023-02-28T06:14:20;101711.00;;;-4.50
22322;BMP180;11328;53.928;18.522;2023-02-28T06:16:47;101715.00;;;-4.40
22322;BMP180;11328;53.928;18.522;2023-02-28T06:19:15;101720.00;;;-4.30
22322;BMP180;11328;53.928;18.522;2023-02-28T06:21:43;101722.00;;;-4.20
22322;BMP180;11328;53.928;18.522;2023-02-28T06:24:10;101728.00;;;-4.10
22322;BMP180;11328;53.928;18.522;2023-02-28T06:26:37;101729.00;;;-4.00
22322;BMP180;11328;53.928;18.522;2023-02-28T06:29:04;101735.00;;;-3.90
22322;BMP180;11328;53.928;18.522;2023-02-28T06:31:31;101742.00;;;-3.80
22322;BMP180;11328;53.928;18.522;2023-02-28T06:33:59;101722.00;;;-3.60
22322;BMP180;11328;53.928;18.522;2023-02-28T06:36:25;101731.00;;;-3.50
22322;BMP180;11328;53.928;18.522;2023-02-28T06:38:52;101729.00;;;-3.40
22322;BMP180;11328;53.928;18.522;2023-02-28T06:41:26;101743.00;;;-3.10
22322;BMP180;11328;53.928;18.522;2023-02-28T06:43:54;101742.00;;;-2.90
22322;BMP180;11328;53.928;18.522;2023-02-28T06:46:22;101738.00;;;-2.80
22322;BMP180;11328;53.928;18.522;2023-02-28T06:48:49;101737.00;;;-2.50
22322;BMP180;11328;53.928;18.522;2023-02-28T06:51:19;101737.00;;;-2.30
22322;BMP180;11328;53.928;18.522;2023-02-28T06:53:48;101740.00;;;-2.10
22322;BMP180;11328;53.928;18.522;2023-02-28T06:56:17;101742.00;;;-1.90
22322;BMP180;11328;53.928;18.522;2023-02-28T06:58:50;101741.00;;;-1.60
22322;BMP180;11328;53.928;18.522;2023-02-28T07:01:19;101744.00;;;-1.50
22322;BMP180;11328;53.928;18.522;2023-02-28T07:03:47;101741.00;;;-1.50
22322;BMP180;11328;53.928;18.522;2023-02-28T07:06:20;101744.00;;;-1.10
22322;BMP180;11328;53.928;18.522;2023-02-28T07:08:50;101703.00;;;-0.80
22322;BMP180;11328;53.928;18.522;2023-02-28T07:11:22;101747.00;;;-0.70
22322;BMP180;11328;53.928;18.522;2023-02-28T07:13:50;101746.00;;;-0.30
22322;BMP180;11328;53.928;18.522;2023-02-28T07:16:20;101744.00;;;0.10
22322;BMP180;11328;53.928;18.522;2023-02-28T07:18:48;101753.00;;;0.20
22322;BMP180;11328;53.928;18.522;2023-02-28T07:21:15;101727.00;;;0.40
22322;BMP180;11328;53.928;18.522;2023-02-28T07:23:42;101736.00;;;0.60
22322;BMP180;11328;53.928;18.522;2023-02-28T07:26:15;101758.00;;;0.60
22322;BMP180;11328;53.928;18.522;2023-02-28T07:28:46;101763.00;;;0.70
22322;BMP180;11328;53.928;18.522;2023-02-28T07:31:14;101761.00;;;0.80
22322;BMP180;11328;53.928;18.522;2023-02-28T07:33:42;101786.00;;;0.90
22322;BMP180;11328;53.928;18.522;2023-02-28T07:36:16;101778.00;;;1.20
22322;BMP180;11328;53.928;18.522;2023-02-28T07:38:47;101784.00;;;1.40
22322;BMP180;11328;53.928;18.522;2023-02-28T07:41:20;101773.00;;;1.50
22322;BMP180;11328;53.928;18.522;2023-02-28T07:43:48;101790.00;;;1.60
22322;BMP180;11328;53.928;18.522;2023-02-28T07:46:16;101784.00;;;1.70
22322;BMP180;11328;53.928;18.522;2023-02-28T07:48:44;101784.00;;;1.80
22322;BMP180;11328;53.928;18.522;2023-02-28T07:51:11;101780.00;;;1.90
22322;BMP180;11328;53.928;18.522;2023-02-28T07:53:39;101778.00;;;2.00
22322;BMP180;11328;53.928;18.522;2023-02-28T07:56:06;101778.00;;;2.00
22322;BMP180;11328;53.928;18.522;2023-02-28T07:58:34;101781.00;;;2.10
22322;BMP180;11328;53.928;18.522;2023-02-28T08:01:09;101782.00;;;2.20
22322;BMP180;11328;53.928;18.522;2023-02-28T08:03:38;101783.00;;;2.30
22322;BMP180;11328;53.928;18.522;2023-02-28T08:06:07;101778.00;;;2.30
22322;BMP180;11328;53.928;18.522;2023-02-28T08:08:34;101772.00;;;2.20
22322;BMP180;11328;53.928;18.522;2023-02-28T08:11:03;101781.00;;;2.50
22322;BMP180;11328;53.928;18.522;2023-02-28T08:13:30;101776.00;;;2.70
22322;BMP180;11328;53.928;18.522;2023-02-28T08:15:57;101766.00;;;2.80
22322;BMP180;11328;53.928;18.522;2023-02-28T08:18:24;101774.00;;;2.90
22322;BMP180;11328;53.928;18.522;2023-02-28T08:20:51;101772.00;;;2.70
22322;BMP180;11328;53.928;18.522;2023-02-28T08:23:19;101771.00;;;2.70
22322;BMP180;11328;53.928;18.522;2023-02-28T08:25:54;101778.00;;;2.80
22322;BMP180;11328;53.928;18.522;2023-02-28T08:28:22;101781.00;;;2.80
22322;BMP180;11328;53.928;18.522;2023-02-28T08:30:53;101782.00;;;3.00
22322;BMP180;11328;53.928;18.522;2023-02-28T08:33:21;101789.00;;;3.30
22322;BMP180;11328;53.928;18.522;2023-02-28T08:35:47;101785.00;;;3.30
22322;BMP180;11328;53.928;18.522;2023-02-28T08:38:14;101789.00;;;3.50
22322;BMP180;11328;53.928;18.522;2023-02-28T08:40:41;101789.00;;;3.70
22322;BMP180;11328;53.928;18.522;2023-02-28T08:43:09;101793.00;;;3.60
22322;BMP180;11328;53.928;18.522;2023-02-28T08:45:36;101788.00;;;3.60
22322;BMP180;11328;53.928;18.522;2023-02-28T08:48:03;101784.00;;;3.50
22322;BMP180;11328;53.928;18.522;2023-02-28T09:05:05;101786.00;;;4.70
22322;BMP180;11328;53.928;18.522;2023-02-28T09:07:33;101778.00;;;4.70
22322;BMP180;11328;53.928;18.522;2023-02-28T09:10:00;101777.00;;;4.60
22322;BMP180;11328;53.928;18.522;2023-02-28T09:12:32;101780.00;;;4.80
22322;BMP180;11328;53.928;18.522;2023-02-28T09:15:00;101791.00;;;4.70
22322;BMP180;11328;53.928;18.522;2023-02-28T09:17:27;101783.00;;;4.60
22322;BMP180;11328;53.928;18.522;2023-02-28T09:19:57;101781.00;;;4.20
22322;BMP180;11328;53.928;18.522;2023-02-28T09:22:24;101766.00;;;4.00
22322;BMP180;11328;53.928;18.522;2023-02-28T09:24:52;101773.00;;;3.90
22322;BMP180;11328;53.928;18.522;2023-02-28T09:27:19;101776.00;;;4.00
22322;BMP180;11328;53.928;18.522;2023-02-28T09:29:47;101773.00;;;4.00
22322;BMP180;11328;53.928;18.522;2023-02-28T09:32:14;101772.00;;;3.90
22322;BMP180;11328;53.928;18.522;2023-02-28T09:34:41;101754.00;;;4.10
22322;BMP180;11328;53.928;18.522;2023-02-28T09:37:09;101784.00;;;4.30
22322;BMP180;11328;53.928;18.522;2023-02-28T09:39:36;101776.00;;;4.20
22322;BMP180;11328;53.928;18.522;2023-02-28T09:42:04;101776.00;;;4.30
22322;BMP180;11328;53.928;18.522;2023-02-28T09:44:44;101773.00;;;4.50
22322;BMP180;11328;53.928;18.522;2023-02-28T09:47:36;101772.00;;;4.70
22322;BMP180;11328;53.928;18.522;2023-02-28T09:50:29;101767.00;;;4.70
22322;BMP180;11328;53.928;18.522;2023-02-28T09:53:06;101742.00;;;4.70
22322;BMP180;11328;53.928;18.522;2023-02-28T09:55:51;101755.00;;;4.50
22322;BMP180;11328;53.928;18.522;2023-02-28T09:58:41;101746.00;;;4.40
22322;BMP180;11328;53.928;18.522;2023-02-28T10:01:29;101737.00;;;4.60
22322;BMP180;11328;53.928;18.522;2023-02-28T10:04:01;101734.00;;;4.60
22322;BMP180;11328;53.928;18.522;2023-02-28T10:06:45;101743.00;;;4.60
22322;BMP180;11328;53.928;18.522;2023-02-28T10:09:32;101728.00;;;5.00
22322;BMP180;11328;53.928;18.522;2023-02-28T10:12:05;101752.00;;;5.10
22322;BMP180;11328;53.928;18.522;2023-02-28T10:14:35;101729.00;;;5.30
22322;BMP180;11328;53.928;18.522;2023-02-28T10:17:21;101764.00;;;5.30
22322;BMP180;11328;53.928;18.522;2023-02-28T10:19:58;101753.00;;;5.60
22322;BMP180;11328;53.928;18.522;2023-02-28T10:22:40;101754.00;;;5.50
22322;BMP180;11328;53.928;18.522;2023-02-28T10:25:27;101752.00;;;5.50
22322;BMP180;11328;53.928;18.522;2023-02-28T10:28:14;101747.00;;;5.50
22322;BMP180;11328;53.928;18.522;2023-02-28T10:30:47;101747.00;;;5.40
22322;BMP180;11328;53.928;18.522;2023-02-28T10:33:34;101757.00;;;5.30
22322;BMP180;11328;53.928;18.522;2023-02-28T10:36:04;101762.00;;;5.30
22322;BMP180;11328;53.928;18.522;2023-02-28T10:38:36;101754.00;;;5.30
22322;BMP180;11328;53.928;18.522;2023-02-28T10:41:14;101767.00;;;5.30
22322;BMP180;11328;53.928;18.522;2023-02-28T10:43:44;101775.00;;;5.30
22322;BMP180;11328;53.928;18.522;2023-02-28T10:46:19;101781.00;;;5.40
22322;BMP180;11328;53.928;18.522;2023-02-28T10:49:11;101780.00;;;5.20
22322;BMP180;11328;53.928;18.522;2023-02-28T10:51:41;101777.00;;;5.50
22322;BMP180;11328;53.928;18.522;2023-02-28T10:54:33;101773.00;;;5.50
22322;BMP180;11328;53.928;18.522;2023-02-28T10:57:09;101764.00;;;5.40
22322;BMP180;11328;53.928;18.522;2023-02-28T10:59:42;101698.00;;;5.50
22322;BMP180;11328;53.928;18.522;2023-02-28T11:02:36;101759.00;;;5.70
22322;BMP180;11328;53.928;18.522;2023-02-28T11:05:32;101762.00;;;5.60
22322;BMP180;11328;53.928;18.522;2023-02-28T11:08:11;101761.00;;;5.50
22322;BMP180;11328;53.928;18.522;2023-02-28T11:10:54;101761.00;;;5.30
22322;BMP180;11328;53.928;18.522;2023-02-28T11:13:32;101777.00;;;5.50
22322;BMP180;11328;53.928;18.522;2023-02-28T11:16:06;101769.00;;;5.60
22322;BMP180;11328;53.928;18.522;2023-02-28T11:18:47;101765.00;;;5.70
22322;BMP180;11328;53.928;18.522;2023-02-28T11:26:49;101756.00;;;5.30
22322;BMP180;11328;53.928;18.522;2023-02-28T11:34:39;101747.00;;;5.30
22322;BMP180;11328;53.928;18.522;2023-02-28T11:37:17;101752.00;;;5.30
22322;BMP180;11328;53.928;18.522;2023-02-28T11:39:46;101738.00;;;5.30
22322;BMP180;11328;53.928;18.522;2023-02-28T11:42:43;101738.00;;;5.40
22322;BMP180;11328;53.928;18.522;2023-02-28T11:56:35;101722.00;;;5.60
22322;BMP180;11328;53.928;18.522;2023-02-28T12:13:33;101693.00;;;5.80
22322;BMP180;11328;53.928;18.522;2023-02-28T12:22:31;101682.00;;;5.80
22322;BMP180;11328;53.928;18.522;2023-02-28T12:27:54;101691.00;;;6.10
22322;BMP180;11328;53.928;18.522;2023-02-28T12:30:27;101691.00;;;6.30
22322;BMP180;11328;53.928;18.522;2023-02-28T12:33:05;101678.00;;;6.20
22322;BMP180;11328;53.928;18.522;2023-02-28T12:35:57;101669.00;;;6.10
22322;BMP180;11328;53.928;18.522;2023-02-28T12:38:44;101679.00;;;6.20
22322;BMP180;11328;53.928;18.522;2023-02-28T12:41:19;101675.00;;;6.20
22322;BMP180;11328;53.928;18.522;2023-02-28T12:43:58;101665.00;;;6.10
22322;BMP180;11328;53.928;18.522;2023-02-28T12:46:37;101670.00;;;6.20
22322;BMP180;11328;53.928;18.522;2023-02-28T12:49:17;101654.00;;;6.30
22322;BMP180;11328;53.928;18.522;2023-02-28T12:51:47;101657.00;;;6.50
22322;BMP180;11328;53.928;18.522;2023-02-28T12:54:24;101672.00;;;6.40
22322;BMP180;11328;53.928;18.522;2023-02-28T12:57:12;101679.00;;;6.60
22322;BMP180;11328;53.928;18.522;2023-02-28T13:00:01;101665.00;;;6.60
22322;BMP180;11328;53.928;18.522;2023-02-28T13:08:25;101667.00;;;6.50
22322;BMP180;11328;53.928;18.522;2023-02-28T13:10:57;101660.00;;;6.60
22322;BMP180;11328;53.928;18.522;2023-02-28T13:13:30;101660.00;;;6.60
22322;BMP180;11328;53.928;18.522;2023-02-28T13:18:47;101652.00;;;6.40
22322;BMP180;11328;53.928;18.522;2023-02-28T13:21:28;101653.00;;;6.60
22322;BMP180;11328;53.928;18.522;2023-02-28T13:24:01;101647.00;;;6.70
22322;BMP180;11328;53.928;18.522;2023-02-28T13:29:37;101655.00;;;6.60
22322;BMP180;11328;53.928;18.522;2023-02-28T13:34:40;101666.00;;;7.00
22322;BMP180;11328;53.928;18.522;2023-02-28T13:40:33;101641.00;;;6.90
22322;BMP180;11328;53.928;18.522;2023-02-28T13:43:08;101642.00;;;7.10
22322;BMP180;11328;53.928;18.522;2023-02-28T13:45:36;101638.00;;;7.10
22322;BMP180;11328;53.928;18.522;2023-02-28T13:48:18;101615.00;;;7.00
22322;BMP180;11328;53.928;18.522;2023-02-28T13:50:46;101620.00;;;7.00
22322;BMP180;11328;53.928;18.522;2023-02-28T13:59:12;101621.00;;;7.00
22322;BMP180;11328;53.928;18.522;2023-02-28T14:05:17;101616.00;;;7.00
22322;BMP180;11328;53.928;18.522;2023-02-28T14:08:01;101620.00;;;7.00
22322;BMP180;11328;53.928;18.522;2023-02-28T14:10:43;101614.00;;;7.00
22322;BMP180;11328;53.928;18.522;2023-02-28T14:13:48;101607.00;;;7.00
22322;BMP180;11328;53.928;18.522;2023-02-28T14:16:55;101598.00;;;6.90
22322;BMP180;11328;53.928;18.522;2023-02-28T14:19:27;101599.00;;;6.80
22322;BMP180;11328;53.928;18.522;2023-02-28T14:25:14;101597.00;;;6.90
22322;BMP180;11328;53.928;18.522;2023-02-28T14:38:51;101599.00;;;7.00
22322;BMP180;11328;53.928;18.522;2023-02-28T14:41:33;101598.00;;;7.10
22322;BMP180;11328;53.928;18.522;2023-02-28T14:44:27;101588.00;;;7.00
22322;BMP180;11328;53.928;18.522;2023-02-28T14:47:02;101592.00;;;6.80
22322;BMP180;11328;53.928;18.522;2023-02-28T14:49:45;101581.00;;;6.70
22322;BMP180;11328;53.928;18.522;2023-02-28T14:52:43;101585.00;;;6.80
22322;BMP180;11328;53.928;18.522;2023-02-28T14:55:17;101590.00;;;6.80
22322;BMP180;11328;53.928;18.522;2023-02-28T14:58:27;101586.00;;;6.80
22322;BMP180;11328;53.928;18.522;2023-02-28T15:00:51;101582.00;;;6.90
22322;BMP180;11328;53.928;18.522;2023-02-28T15:06:02;101578.00;;;7.00
22322;BMP180;11328;53.928;18.522;2023-02-28T15:08:31;101572.00;;;7.00
22322;BMP180;11328;53.928;18.522;2023-02-28T15:11:08;101568.00;;;7.10
22322;BMP180;11328;53.928;18.522;2023-02-28T15:13:48;101576.00;;;7.10
22322;BMP180;11328;53.928;18.522;2023-02-28T15:16:22;101565.00;;;7.00
22322;BMP180;11328;53.928;18.522;2023-02-28T15:21:33;101577.00;;;6.90
22322;BMP180;11328;53.928;18.522;2023-02-28T15:24:10;101567.00;;;6.80
22322;BMP180;11328;53.928;18.522;2023-02-28T15:26:45;101568.00;;;6.80
22322;BMP180;11328;53.928;18.522;2023-02-28T15:29:19;101564.00;;;6.60
22322;BMP180;11328;53.928;18.522;2023-02-28T15:31:52;101571.00;;;6.60
22322;BMP180;11328;53.928;18.522;2023-02-28T15:34:41;101571.00;;;6.60
22322;BMP180;11328;53.928;18.522;2023-02-28T15:37:57;101566.00;;;6.50
22322;BMP180;11328;53.928;18.522;2023-02-28T15:41:03;101575.00;;;6.40
22322;BMP180;11328;53.928;18.522;2023-02-28T15:43:38;101571.00;;;6.40
22322;BMP180;11328;53.928;18.522;2023-02-28T15:46:11;101567.00;;;6.30
22322;BMP180;11328;53.928;18.522;2023-02-28T15:48:55;101572.00;;;6.40
22322;BMP180;11328;53.928;18.522;2023-02-28T15:51:36;101572.00;;;6.30
22322;BMP180;11328;53.928;18.522;2023-02-28T15:54:10;101567.00;;;6.20
22322;BMP180;11328;53.928;18.522;2023-02-28T15:56:45;101568.00;;;6.10
22322;BMP180;11328;53.928;18.522;2023-02-28T15:59:20;101569.00;;;6.00
22322;BMP180;11328;53.928;18.522;2023-02-28T16:02:18;101584.00;;;6.10
22322;BMP180;11328;53.928;18.522;2023-02-28T16:05:26;101575.00;;;6.00
22322;BMP180;11328;53.928;18.522;2023-02-28T16:08:14;101580.00;;;6.00
22322;BMP180;11328;53.928;18.522;2023-02-28T16:10:42;101570.00;;;5.90
22322;BMP180;11328;53.928;18.522;2023-02-28T16:13:12;101562.00;;;5.70
22322;BMP180;11328;53.928;18.522;2023-02-28T16:15:43;101586.00;;;5.70
22322;BMP180;11328;53.928;18.522;2023-02-28T16:18:12;101577.00;;;5.60
22322;BMP180;11328;53.928;18.522;2023-02-28T16:20:40;101582.00;;;5.50
22322;BMP180;11328;53.928;18.522;2023-02-28T16:23:07;101572.00;;;5.40
22322;BMP180;11328;53.928;18.522;2023-02-28T16:25:42;101561.00;;;5.40
22322;BMP180;11328;53.928;18.522;2023-02-28T16:28:21;101556.00;;;5.30
22322;BMP180;11328;53.928;18.522;2023-02-28T16:30:54;101558.00;;;5.10
22322;BMP180;11328;53.928;18.522;2023-02-28T16:33:22;101561.00;;;4.90
22322;BMP180;11328;53.928;18.522;2023-02-28T16:35:49;101563.00;;;4.90
22322;BMP180;11328;53.928;18.522;2023-02-28T16:38:16;101562.00;;;4.70
22322;BMP180;11328;53.928;18.522;2023-02-28T16:40:45;101565.00;;;4.60